sensor_id;sensor_type;location;lat;lon;timestamp;pressure;altitude;pressure_sealevel;temperature;humidity
21234;BME280;10774;42.178;26.578;2023-07-09T00:00:49;100194.81;;;18.92;100.00
21234;BME280;10774;42.178;26.578;2023-07-09T00:03:16;100180.81;;;18.87;100.00
21234;BME280;10774;42.178;26.578;2023-07-09T00:05:42;100188.84;;;18.79;100.00
21234;BME280;10774;42.178;26.578;2023-07-09T00:08:24;100191.16;;;18.74;100.00
21234;BME280;10774;42.178;26.578;2023-07-09T00:10:52;100193.38;;;18.98;100.00
21234;BME280;10774;42.178;26.578;2023-07-09T00:13:17;100195.00;;;18.71;100.00
21234;BME280;10774;42.178;26.578;2023-07-09T00:15:43;100199.41;;;19.01;100.00
21234;BME280;10774;42.178;26.578;2023-07-09T00:18:09;100193.53;;;18.96;100.00
21234;BME280;10774;42.178;26.578;2023-07-09T00:20:35;100197.69;;;19.00;100.00
21234;BME280;10774;42.178;26.578;2023-07-09T00:23:00;100192.22;;;19.10;100.00
21234;BME280;10774;42.178;26.578;2023-07-09T00:25:30;100193.09;;;19.01;100.00
21234;BME280;10774;42.178;26.578;2023-07-09T00:27:55;100193.97;;;18.92;100.00
21234;BME280;10774;42.178;26.578;2023-07-09T00:30:22;100191.72;;;18.77;100.00
21234;BME280;10774;42.178;26.578;2023-07-09T00:32:51;100211.16;;;18.92;100.00
21234;BME280;10774;42.178;26.578;2023-07-09T00:35:18;100193.97;;;18.82;100.00
21234;BME280;10774;42.178;26.578;2023-07-09T00:37:45;100197.88;;;18.70;100.00
21234;BME280;10774;42.178;26.578;2023-07-09T00:40:20;100199.13;;;18.66;100.00
21234;BME280;10774;42.178;26.578;2023-07-09T00:42:47;100191.41;;;18.71;100.00
21234;BME280;10774;42.178;26.578;2023-07-09T00:47:48;100190.41;;;18.62;100.00
21234;BME280;10774;42.178;26.578;2023-07-09T00:53:04;100187.97;;;18.59;100.00
21234;BME280;10774;42.178;26.578;2023-07-09T00:55:36;100171.38;;;18.62;100.00
21234;BME280;10774;42.178;26.578;2023-07-09T00:58:06;100181.09;;;18.94;100.00
21234;BME280;10774;42.178;26.578;2023-07-09T01:00:37;100164.75;;;19.03;100.00
21234;BME280;10774;42.178;26.578;2023-07-09T01:03:15;100168.34;;;18.94;100.00
21234;BME280;10774;42.178;26.578;2023-07-09T01:05:45;100186.28;;;18.68;100.00
21234;BME280;10774;42.178;26.578;2023-07-09T01:08:17;100185.25;;;18.49;100.00
21234;BME280;10774;42.178;26.578;2023-07-09T01:10:42;100183.06;;;18.24;100.00
21234;BME280;10774;42.178;26.578;2023-07-09T01:13:08;100204.94;;;17.63;100.00
21234;BME280;10774;42.178;26.578;2023-07-09T01:15:34;100200.19;;;17.95;100.00
21234;BME280;10774;42.178;26.578;2023-07-09T01:18:05;100198.69;;;18.22;100.00
21234;BME280;10774;42.178;26.578;2023-07-09T01:20:31;100201.41;;;18.32;100.00
21234;BME280;10774;42.178;26.578;2023-07-09T01:22:57;100189.69;;;18.31;100.00
21234;BME280;10774;42.178;26.578;2023-07-09T01:25:26;100205.41;;;18.37;100.00
21234;BME280;10774;42.178;26.578;2023-07-09T01:27:53;100202.28;;;18.51;100.00
21234;BME280;10774;42.178;26.578;2023-07-09T01:30:38;100214.56;;;18.55;100.00
21234;BME280;10774;42.178;26.578;2023-07-09T01:33:04;100215.28;;;18.48;100.00
21234;BME280;10774;42.178;26.578;2023-07-09T01:35:33;100223.19;;;18.80;100.00
21234;BME280;10774;42.178;26.578;2023-07-09T01:37:59;100213.75;;;18.84;100.00
21234;BME280;10774;42.178;26.578;2023-07-09T01:40:27;100221.31;;;18.71;100.00
21234;BME280;10774;42.178;26.578;2023-07-09T01:42:54;100222.00;;;18.44;100.00
21234;BME280;10774;42.178;26.578;2023-07-09T01:45:23;100218.75;;;18.40;100.00
21234;BME280;10774;42.178;26.578;2023-07-09T01:47:49;100222.00;;;18.34;100.00
21234;BME280;10774;42.178;26.578;2023-07-09T01:50:14;100213.69;;;18.16;100.00
21234;BME280;10774;42.178;26.578;2023-07-09T01:52:43;100212.22;;;18.02;100.00
21234;BME280;10774;42.178;26.578;2023-07-09T01:55:13;100222.75;;;17.86;100.00
21234;BME280;10774;42.178;26.578;2023-07-09T01:57:42;100223.63;;;17.96;100.00
21234;BME280;10774;42.178;26.578;2023-07-09T02:00:10;100227.63;;;17.92;100.00
21234;BME280;10774;42.178;26.578;2023-07-09T02:02:42;100222.16;;;17.73;100.00
21234;BME280;10774;42.178;26.578;2023-07-09T02:05:09;100238.03;;;17.87;100.00
21234;BME280;10774;42.178;26.578;2023-07-09T02:07:34;100236.72;;;17.82;100.00
21234;BME280;10774;42.178;26.578;2023-07-09T02:10:00;100223.50;;;17.88;100.00
21234;BME280;10774;42.178;26.578;2023-07-09T02:12:25;100232.09;;;17.93;100.00
21234;BME280;10774;42.178;26.578;2023-07-09T02:14:51;100239.34;;;17.83;100.00
21234;BME280;10774;42.178;26.578;2023-07-09T02:17:16;100237.06;;;17.88;100.00
21234;BME280;10774;42.178;26.578;2023-07-09T02:19:42;100226.66;;;17.93;100.00
21234;BME280;10774;42.178;26.578;2023-07-09T02:22:09;100219.78;;;17.89;100.00
21234;BME280;10774;42.178;26.578;2023-07-09T02:24:35;100233.19;;;17.91;100.00
21234;BME280;10774;42.178;26.578;2023-07-09T02:27:03;100245.22;;;17.88;100.00
21234;BME280;10774;42.178;26.578;2023-07-09T02:29:29;100242.47;;;17.79;100.00
21234;BME280;10774;42.178;26.578;2023-07-09T02:31:57;100226.31;;;17.77;100.00
21234;BME280;10774;42.178;26.578;2023-07-09T02:34:24;100241.59;;;17.78;100.00
21234;BME280;10774;42.178;26.578;2023-07-09T02:36:55;100239.34;;;17.83;100.00
21234;BME280;10774;42.178;26.578;2023-07-09T02:39:21;100237.59;;;17.82;100.00
21234;BME280;10774;42.178;26.578;2023-07-09T02:41:47;100235.91;;;17.91;100.00
21234;BME280;10774;42.178;26.578;2023-07-09T02:44:13;100247.06;;;17.88;100.00
21234;BME280;10774;42.178;26.578;2023-07-09T02:46:38;100235.25;;;17.98;100.00
21234;BME280;10774;42.178;26.578;2023-07-09T02:49:05;100243.91;;;17.92;100.00
21234;BME280;10774;42.178;26.578;2023-07-09T02:51:31;100240.31;;;17.82;100.00
21234;BME280;10774;42.178;26.578;2023-07-09T02:53:58;100248.19;;;17.85;100.00
21234;BME280;10774;42.178;26.578;2023-07-09T02:56:24;100245.94;;;17.90;100.00
21234;BME280;10774;42.178;26.578;2023-07-09T02:58:50;100245.88;;;17.81;100.00
21234;BME280;10774;42.178;26.578;2023-07-09T03:01:16;100238.91;;;17.57;100.00
21234;BME280;10774;42.178;26.578;2023-07-09T03:03:42;100243.91;;;17.83;100.00
21234;BME280;10774;42.178;26.578;2023-07-09T03:06:07;100243.16;;;17.81;100.00
21234;BME280;10774;42.178;26.578;2023-07-09T03:08:33;100242.63;;;17.66;100.00
21234;BME280;10774;42.178;26.578;2023-07-09T03:10:59;100234.16;;;17.80;100.00
21234;BME280;10774;42.178;26.578;2023-07-09T03:13:25;100245.75;;;17.82;100.00
21234;BME280;10774;42.178;26.578;2023-07-09T03:15:57;100237.88;;;17.79;100.00
21234;BME280;10774;42.178;26.578;2023-07-09T03:18:23;100238.63;;;17.60;100.00
21234;BME280;10774;42.178;26.578;2023-07-09T03:20:49;100247.34;;;17.64;100.00
21234;BME280;10774;42.178;26.578;2023-07-09T03:23:14;100241.22;;;17.62;100.00
21234;BME280;10774;42.178;26.578;2023-07-09T03:25:44;100247.25;;;17.14;100.00
21234;BME280;10774;42.178;26.578;2023-07-09T03:28:10;100241.47;;;17.07;100.00
21234;BME280;10774;42.178;26.578;2023-07-09T03:30:48;100254.44;;;16.28;100.00
21234;BME280;10774;42.178;26.578;2023-07-09T03:33:15;100242.00;;;16.69;100.00
21234;BME280;10774;42.178;26.578;2023-07-09T03:35:42;100248.56;;;17.19;100.00
21234;BME280;10774;42.178;26.578;2023-07-09T03:38:09;100252.75;;;17.33;100.00
21234;BME280;10774;42.178;26.578;2023-07-09T03:40:36;100246.28;;;17.45;100.00
21234;BME280;10774;42.178;26.578;2023-07-09T03:43:06;100248.31;;;17.53;100.00
21234;BME280;10774;42.178;26.578;2023-07-09T03:45:33;100242.78;;;17.64;100.00
21234;BME280;10774;42.178;26.578;2023-07-09T03:47:59;100244.47;;;17.86;100.00
21234;BME280;10774;42.178;26.578;2023-07-09T03:50:25;100241.00;;;18.15;100.00
21234;BME280;10774;42.178;26.578;2023-07-09T03:52:50;100240.03;;;18.25;100.00
21234;BME280;10774;42.178;26.578;2023-07-09T03:55:16;100235.44;;;18.45;100.00
21234;BME280;10774;42.178;26.578;2023-07-09T03:57:41;100232.63;;;18.57;100.00
21234;BME280;10774;42.178;26.578;2023-07-09T04:00:07;100238.81;;;18.78;100.00
21234;BME280;10774;42.178;26.578;2023-07-09T04:02:36;100235.66;;;18.73;100.00
21234;BME280;10774;42.178;26.578;2023-07-09T04:05:02;100253.25;;;18.88;100.00
21234;BME280;10774;42.178;26.578;2023-07-09T04:07:28;100251.34;;;18.60;100.00
21234;BME280;10774;42.178;26.578;2023-07-09T04:09:54;100253.78;;;18.43;100.00
21234;BME280;10774;42.178;26.578;2023-07-09T04:12:20;100257.75;;;18.39;100.00
21234;BME280;10774;42.178;26.578;2023-07-09T04:14:45;100261.53;;;18.77;100.00
21234;BME280;10774;42.178;26.578;2023-07-09T04:17:11;100263.28;;;18.78;100.00
21234;BME280;10774;42.178;26.578;2023-07-09T04:19:36;100256.09;;;18.96;100.00
21234;BME280;10774;42.178;26.578;2023-07-09T04:22:02;100261.28;;;18.99;100.00
21234;BME280;10774;42.178;26.578;2023-07-09T04:24:27;100265.53;;;19.12;100.00
21234;BME280;10774;42.178;26.578;2023-07-09T04:26:53;100253.66;;;19.03;100.00
21234;BME280;10774;42.178;26.578;2023-07-09T04:29:22;100254.53;;;18.74;100.00
21234;BME280;10774;42.178;26.578;2023-07-09T04:31:48;100252.09;;;19.00;100.00
21234;BME280;10774;42.178;26.578;2023-07-09T04:34:13;100249.78;;;19.25;100.00
21234;BME280;10774;42.178;26.578;2023-07-09T04:36:39;100243.25;;;19.45;100.00
21234;BME280;10774;42.178;26.578;2023-07-09T04:39:05;100247.25;;;19.61;100.00
21234;BME280;10774;42.178;26.578;2023-07-09T04:41:30;100243.69;;;19.50;100.00
21234;BME280;10774;42.178;26.578;2023-07-09T04:43:56;100239.09;;;19.61;100.00
21234;BME280;10774;42.178;26.578;2023-07-09T04:46:21;100242.22;;;19.66;100.00
21234;BME280;10774;42.178;26.578;2023-07-09T04:48:47;100240.97;;;19.88;100.00
21234;BME280;10774;42.178;26.578;2023-07-09T04:51:12;100238.94;;;19.99;100.00
21234;BME280;10774;42.178;26.578;2023-07-09T04:53:37;100245.38;;;19.98;100.00
21234;BME280;10774;42.178;26.578;2023-07-09T04:56:03;100239.41;;;20.13;100.00
21234;BME280;10774;42.178;26.578;2023-07-09T04:58:32;100231.81;;;20.34;100.00
21234;BME280;10774;42.178;26.578;2023-07-09T05:00:58;100243.25;;;20.47;100.00
21234;BME280;10774;42.178;26.578;2023-07-09T05:03:25;100253.91;;;20.41;100.00
21234;BME280;10774;42.178;26.578;2023-07-09T05:05:50;100259.63;;;20.47;100.00
21234;BME280;10774;42.178;26.578;2023-07-09T05:08:16;100253.84;;;20.50;100.00
21234;BME280;10774;42.178;26.578;2023-07-09T05:10:50;100260.47;;;20.66;100.00
21234;BME280;10774;42.178;26.578;2023-07-09T05:13:17;100250.91;;;20.79;100.00
21234;BME280;10774;42.178;26.578;2023-07-09T05:15:45;100246.69;;;20.85;100.00
21234;BME280;10774;42.178;26.578;2023-07-09T05:18:12;100244.34;;;20.90;100.00
21234;BME280;10774;42.178;26.578;2023-07-09T05:20:38;100243.75;;;21.22;100.00
21234;BME280;10774;42.178;26.578;2023-07-09T05:23:03;100244.81;;;21.29;100.00
21234;BME280;10774;42.178;26.578;2023-07-09T05:25:29;100243.69;;;21.32;100.00
21234;BME280;10774;42.178;26.578;2023-07-09T05:27:54;100252.47;;;21.26;100.00
21234;BME280;10774;42.178;26.578;2023-07-09T05:30:20;100251.00;;;21.13;100.00
21234;BME280;10774;42.178;26.578;2023-07-09T05:32:46;100248.19;;;21.23;100.00
21234;BME280;10774;42.178;26.578;2023-07-09T05:35:12;100246.25;;;21.33;100.00
21234;BME280;10774;42.178;26.578;2023-07-09T05:37:37;100247.19;;;21.50;100.00
21234;BME280;10774;42.178;26.578;2023-07-09T05:40:07;100237.63;;;21.46;100.00
21234;BME280;10774;42.178;26.578;2023-07-09T05:42:34;100244.06;;;21.63;100.00
21234;BME280;10774;42.178;26.578;2023-07-09T05:44:59;100237.09;;;21.77;100.00
21234;BME280;10774;42.178;26.578;2023-07-09T05:47:25;100235.09;;;21.79;100.00
21234;BME280;10774;42.178;26.578;2023-07-09T05:49:51;100239.63;;;22.04;100.00
21234;BME280;10774;42.178;26.578;2023-07-09T05:52:18;100234.44;;;22.27;96.48
21234;BME280;10774;42.178;26.578;2023-07-09T05:54:44;100237.00;;;22.29;98.55
21234;BME280;10774;42.178;26.578;2023-07-09T05:57:10;100234.47;;;22.43;90.73
21234;BME280;10774;42.178;26.578;2023-07-09T05:59:35;100223.56;;;22.60;84.06
21234;BME280;10774;42.178;26.578;2023-07-09T06:02:01;100227.84;;;22.62;75.71
21234;BME280;10774;42.178;26.578;2023-07-09T06:04:28;100226.19;;;22.94;76.32
21234;BME280;10774;42.178;26.578;2023-07-09T06:06:53;100216.06;;;22.78;74.20
21234;BME280;10774;42.178;26.578;2023-07-09T06:09:19;100214.84;;;22.81;74.67
21234;BME280;10774;42.178;26.578;2023-07-09T06:11:44;100209.53;;;22.87;74.01
21234;BME280;10774;42.178;26.578;2023-07-09T06:14:10;100219.16;;;23.16;72.45
21234;BME280;10774;42.178;26.578;2023-07-09T06:16:35;100220.69;;;23.27;69.38
21234;BME280;10774;42.178;26.578;2023-07-09T06:19:02;100220.84;;;23.33;64.43
21234;BME280;10774;42.178;26.578;2023-07-09T06:21:27;100215.38;;;23.33;60.85
21234;BME280;10774;42.178;26.578;2023-07-09T06:23:53;100219.31;;;23.14;60.05
21234;BME280;10774;42.178;26.578;2023-07-09T06:26:18;100218.97;;;23.42;60.18
21234;BME280;10774;42.178;26.578;2023-07-09T06:28:44;100212.78;;;23.48;55.76
21234;BME280;10774;42.178;26.578;2023-07-09T06:31:10;100219.25;;;23.55;53.69
21234;BME280;10774;42.178;26.578;2023-07-09T06:33:36;100209.34;;;23.46;54.74
21234;BME280;10774;42.178;26.578;2023-07-09T06:36:01;100214.28;;;23.59;55.36
21234;BME280;10774;42.178;26.578;2023-07-09T06:38:28;100205.84;;;23.77;54.47
21234;BME280;10774;42.178;26.578;2023-07-09T06:40:55;100208.97;;;23.73;53.92
21234;BME280;10774;42.178;26.578;2023-07-09T06:43:21;100217.53;;;23.70;54.42
21234;BME280;10774;42.178;26.578;2023-07-09T06:45:54;100203.31;;;23.59;53.85
21234;BME280;10774;42.178;26.578;2023-07-09T06:48:20;100215.81;;;23.69;53.47
21234;BME280;10774;42.178;26.578;2023-07-09T06:50:46;100208.44;;;23.78;52.90
21234;BME280;10774;42.178;26.578;2023-07-09T06:53:12;100213.69;;;23.88;53.61
21234;BME280;10774;42.178;26.578;2023-07-09T06:55:38;100211.09;;;23.94;53.91
21234;BME280;10774;42.178;26.578;2023-07-09T06:58:03;100207.56;;;24.17;54.04
21234;BME280;10774;42.178;26.578;2023-07-09T07:00:29;100220.75;;;24.21;52.54
21234;BME280;10774;42.178;26.578;2023-07-09T07:02:54;100209.84;;;24.05;52.48
21234;BME280;10774;42.178;26.578;2023-07-09T07:05:19;100208.72;;;24.22;51.78
21234;BME280;10774;42.178;26.578;2023-07-09T07:07:45;100198.25;;;24.26;50.90
21234;BME280;10774;42.178;26.578;2023-07-09T07:10:11;100209.03;;;24.27;50.36
21234;BME280;10774;42.178;26.578;2023-07-09T07:12:45;100219.75;;;24.45;50.30
21234;BME280;10774;42.178;26.578;2023-07-09T07:15:12;100198.72;;;24.38;52.01
21234;BME280;10774;42.178;26.578;2023-07-09T07:17:38;100205.56;;;24.65;51.00
21234;BME280;10774;42.178;26.578;2023-07-09T07:20:05;100204.16;;;24.92;51.24
21234;BME280;10774;42.178;26.578;2023-07-09T07:22:31;100196.50;;;25.02;50.49
21234;BME280;10774;42.178;26.578;2023-07-09T07:24:56;100208.34;;;25.02;51.60
21234;BME280;10774;42.178;26.578;2023-07-09T07:27:22;100199.69;;;24.91;51.50
21234;BME280;10774;42.178;26.578;2023-07-09T07:29:47;100207.50;;;25.02;51.09
21234;BME280;10774;42.178;26.578;2023-07-09T07:32:13;100197.00;;;24.83;49.98
21234;BME280;10774;42.178;26.578;2023-07-09T07:34:38;100204.56;;;25.03;50.62
21234;BME280;10774;42.178;26.578;2023-07-09T07:37:04;100203.22;;;25.22;50.07
21234;BME280;10774;42.178;26.578;2023-07-09T07:39:29;100200.47;;;25.22;49.15
21234;BME280;10774;42.178;26.578;2023-07-09T07:41:54;100195.56;;;25.33;46.91
21234;BME280;10774;42.178;26.578;2023-07-09T07:44:21;100211.47;;;25.52;46.47
21234;BME280;10774;42.178;26.578;2023-07-09T07:46:47;100205.16;;;25.37;46.20
21234;BME280;10774;42.178;26.578;2023-07-09T07:49:12;100189.03;;;25.48;47.11
21234;BME280;10774;42.178;26.578;2023-07-09T07:51:38;100204.13;;;25.52;44.99
21234;BME280;10774;42.178;26.578;2023-07-09T07:54:04;100212.25;;;25.61;46.00
21234;BME280;10774;42.178;26.578;2023-07-09T07:56:30;100219.72;;;25.52;45.66
21234;BME280;10774;42.178;26.578;2023-07-09T07:58:55;100196.44;;;25.48;44.42
21234;BME280;10774;42.178;26.578;2023-07-09T08:01:20;100199.84;;;25.50;45.62
21234;BME280;10774;42.178;26.578;2023-07-09T08:03:46;100204.88;;;25.76;45.49
21234;BME280;10774;42.178;26.578;2023-07-09T08:06:12;100204.59;;;25.86;44.78
21234;BME280;10774;42.178;26.578;2023-07-09T08:08:37;100204.03;;;26.05;45.53
21234;BME280;10774;42.178;26.578;2023-07-09T08:11:06;100201.19;;;25.84;44.50
21234;BME280;10774;42.178;26.578;2023-07-09T08:13:36;100201.56;;;26.10;45.91
21234;BME280;10774;42.178;26.578;2023-07-09T08:16:03;100195.38;;;25.93;45.58
21234;BME280;10774;42.178;26.578;2023-07-09T08:18:28;100188.81;;;26.09;44.68
21234;BME280;10774;42.178;26.578;2023-07-09T08:20:54;100193.22;;;26.25;44.66
21234;BME280;10774;42.178;26.578;2023-07-09T08:23:19;100184.88;;;26.33;44.20
21234;BME280;10774;42.178;26.578;2023-07-09T08:25:58;100182.69;;;26.28;44.80
21234;BME280;10774;42.178;26.578;2023-07-09T08:28:25;100184.44;;;26.51;42.67
21234;BME280;10774;42.178;26.578;2023-07-09T08:30:52;100183.63;;;26.36;42.14
21234;BME280;10774;42.178;26.578;2023-07-09T08:33:18;100191.81;;;26.65;42.05
21234;BME280;10774;42.178;26.578;2023-07-09T08:35:44;100191.13;;;26.05;42.51
21234;BME280;10774;42.178;26.578;2023-07-09T08:38:09;100191.56;;;26.09;42.32
21234;BME280;10774;42.178;26.578;2023-07-09T08:40:39;100183.00;;;26.19;41.98
21234;BME280;10774;42.178;26.578;2023-07-09T08:43:20;100190.75;;;26.45;42.27
21234;BME280;10774;42.178;26.578;2023-07-09T08:48:33;100191.66;;;26.73;41.52
21234;BME280;10774;42.178;26.578;2023-07-09T08:54:00;100190.63;;;26.74;41.11
21234;BME280;10774;42.178;26.578;2023-07-09T08:56:32;100184.84;;;26.91;41.89
21234;BME280;10774;42.178;26.578;2023-07-09T08:59:14;100186.59;;;27.20;41.44
21234;BME280;10774;42.178;26.578;2023-07-09T09:01:51;100176.59;;;26.91;41.37
21234;BME280;10774;42.178;26.578;2023-07-09T09:04:21;100177.78;;;26.81;41.51
21234;BME280;10774;42.178;26.578;2023-07-09T09:06:59;100183.91;;;26.83;40.49
21234;BME280;10774;42.178;26.578;2023-07-09T09:09:57;100181.50;;;27.17;41.86
21234;BME280;10774;42.178;26.578;2023-07-09T09:15:17;100191.13;;;27.06;41.50
21234;BME280;10774;42.178;26.578;2023-07-09T09:17:44;100173.44;;;27.50;40.61
21234;BME280;10774;42.178;26.578;2023-07-09T09:20:12;100165.13;;;27.15;40.44
21234;BME280;10774;42.178;26.578;2023-07-09T09:23:07;100186.34;;;27.15;40.47
21234;BME280;10774;42.178;26.578;2023-07-09T09:25:40;100173.66;;;27.20;41.11
21234;BME280;10774;42.178;26.578;2023-07-09T09:28:07;100161.19;;;27.24;40.48
21234;BME280;10774;42.178;26.578;2023-07-09T09:30:33;100170.19;;;27.40;40.41
21234;BME280;10774;42.178;26.578;2023-07-09T09:33:01;100152.44;;;27.49;40.85
21234;BME280;10774;42.178;26.578;2023-07-09T09:35:27;100155.16;;;27.42;39.59
21234;BME280;10774;42.178;26.578;2023-07-09T09:37:56;100160.50;;;27.50;40.04
21234;BME280;10774;42.178;26.578;2023-07-09T09:40:23;100158.81;;;27.49;40.96
21234;BME280;10774;42.178;26.578;2023-07-09T09:42:50;100165.31;;;27.42;39.14
21234;BME280;10774;42.178;26.578;2023-07-09T09:45:18;100165.53;;;27.40;39.17
21234;BME280;10774;42.178;26.578;2023-07-09T09:47:45;100148.97;;;27.33;40.28
21234;BME280;10774;42.178;26.578;2023-07-09T09:50:19;100159.72;;;27.98;38.48
21234;BME280;10774;42.178;26.578;2023-07-09T09:52:45;100154.41;;;27.96;38.04
21234;BME280;10774;42.178;26.578;2023-07-09T09:55:24;100160.59;;;27.63;39.39
21234;BME280;10774;42.178;26.578;2023-07-09T09:57:52;100154.16;;;27.56;39.76
21234;BME280;10774;42.178;26.578;2023-07-09T10:00:21;100149.19;;;27.73;39.26
21234;BME280;10774;42.178;26.578;2023-07-09T10:02:46;100148.06;;;28.09;39.41
21234;BME280;10774;42.178;26.578;2023-07-09T10:05:16;100157.41;;;28.08;38.76
21234;BME280;10774;42.178;26.578;2023-07-09T10:10:24;100156.97;;;28.04;38.43
21234;BME280;10774;42.178;26.578;2023-07-09T10:13:07;100143.78;;;28.00;38.94
21234;BME280;10774;42.178;26.578;2023-07-09T10:16:00;100156.63;;;28.27;39.06
21234;BME280;10774;42.178;26.578;2023-07-09T10:18:53;100148.53;;;28.19;39.46
21234;BME280;10774;42.178;26.578;2023-07-09T10:21:34;100148.28;;;28.01;38.65
21234;BME280;10774;42.178;26.578;2023-07-09T10:26:47;100151.06;;;28.14;38.52
21234;BME280;10774;42.178;26.578;2023-07-09T10:29:24;100143.97;;;28.53;39.33
21234;BME280;10774;42.178;26.578;2023-07-09T10:32:39;100147.38;;;28.55;38.82
21234;BME280;10774;42.178;26.578;2023-07-09T10:35:21;100140.34;;;28.46;37.75
21234;BME280;10774;42.178;26.578;2023-07-09T10:40:39;100155.13;;;28.31;38.99
21234;BME280;10774;42.178;26.578;2023-07-09T10:43:13;100145.06;;;27.91;38.39
21234;BME280;10774;42.178;26.578;2023-07-09T10:45:49;100150.59;;;27.97;38.94
21234;BME280;10774;42.178;26.578;2023-07-09T10:48:33;100149.34;;;28.06;38.79
21234;BME280;10774;42.178;26.578;2023-07-09T10:50:59;100152.28;;;28.05;39.16
21234;BME280;10774;42.178;26.578;2023-07-09T10:53:46;100153.34;;;28.65;37.92
21234;BME280;10774;42.178;26.578;2023-07-09T10:56:20;100149.81;;;28.17;38.78
21234;BME280;10774;42.178;26.578;2023-07-09T11:02:12;100142.50;;;28.70;39.15
21234;BME280;10774;42.178;26.578;2023-07-09T11:04:53;100149.75;;;28.84;39.11
21234;BME280;10774;42.178;26.578;2023-07-09T11:07:26;100159.63;;;28.32;37.99
21234;BME280;10774;42.178;26.578;2023-07-09T11:09:54;100150.34;;;28.66;38.40
21234;BME280;10774;42.178;26.578;2023-07-09T11:12:32;100138.06;;;29.02;38.22
21234;BME280;10774;42.178;26.578;2023-07-09T11:17:40;100135.47;;;28.67;38.20
21234;BME280;10774;42.178;26.578;2023-07-09T11:20:21;100141.66;;;28.76;37.62
21234;BME280;10774;42.178;26.578;2023-07-09T11:23:06;100162.66;;;28.57;37.74
21234;BME280;10774;42.178;26.578;2023-07-09T11:25:46;100153.66;;;28.22;38.60
21234;BME280;10774;42.178;26.578;2023-07-09T11:28:13;100156.38;;;28.97;38.09
21234;BME280;10774;42.178;26.578;2023-07-09T11:30:53;100135.50;;;28.81;38.55
21234;BME280;10774;42.178;26.578;2023-07-09T11:33:26;100166.94;;;29.26;37.08
21234;BME280;10774;42.178;26.578;2023-07-09T11:36:06;100154.19;;;29.25;37.13
21234;BME280;10774;42.178;26.578;2023-07-09T11:38:39;100148.88;;;28.71;36.83
21234;BME280;10774;42.178;26.578;2023-07-09T11:41:43;100132.09;;;28.72;37.18
21234;BME280;10774;42.178;26.578;2023-07-09T11:44:18;100142.50;;;29.23;36.15
21234;BME280;10774;42.178;26.578;2023-07-09T11:47:17;100140.91;;;29.80;36.07
21234;BME280;10774;42.178;26.578;2023-07-09T11:49:57;100133.28;;;29.62;35.74
21234;BME280;10774;42.178;26.578;2023-07-09T11:52:41;100122.22;;;29.62;35.11
21234;BME280;10774;42.178;26.578;2023-07-09T11:57:48;100123.09;;;29.50;36.15
21234;BME280;10774;42.178;26.578;2023-07-09T12:00:15;100129.50;;;29.43;36.21
21234;BME280;10774;42.178;26.578;2023-07-09T12:02:41;100114.47;;;29.91;36.99
21234;BME280;10774;42.178;26.578;2023-07-09T12:05:06;100129.03;;;29.47;35.99
21234;BME280;10774;42.178;26.578;2023-07-09T12:07:32;100132.50;;;28.89;36.32
21234;BME280;10774;42.178;26.578;2023-07-09T12:09:57;100124.03;;;29.04;35.94
21234;BME280;10774;42.178;26.578;2023-07-09T12:12:25;100115.63;;;29.63;36.77
21234;BME280;10774;42.178;26.578;2023-07-09T12:14:52;100115.03;;;29.48;36.16
21234;BME280;10774;42.178;26.578;2023-07-09T12:17:18;100097.69;;;30.24;35.33
21234;BME280;10774;42.178;26.578;2023-07-09T12:19:43;100100.47;;;29.73;35.40
21234;BME280;10774;42.178;26.578;2023-07-09T12:22:22;100099.63;;;29.72;36.45
21234;BME280;10774;42.178;26.578;2023-07-09T12:24:49;100107.78;;;29.47;35.03
21234;BME280;10774;42.178;26.578;2023-07-09T12:27:26;100097.50;;;29.74;36.91
21234;BME280;10774;42.178;26.578;2023-07-09T12:29:57;100111.72;;;30.29;35.87
21234;BME280;10774;42.178;26.578;2023-07-09T12:32:23;100112.84;;;29.70;36.16
21234;BME280;10774;42.178;26.578;2023-07-09T12:34:52;100098.59;;;30.11;36.28
21234;BME280;10774;42.178;26.578;2023-07-09T12:37:19;100100.16;;;30.39;36.00
21234;BME280;10774;42.178;26.578;2023-07-09T12:39:46;100084.91;;;30.23;35.96
21234;BME280;10774;42.178;26.578;2023-07-09T12:42:19;100091.97;;;30.51;35.69
21234;BME280;10774;42.178;26.578;2023-07-09T12:44:46;100088.25;;;31.32;35.49
21234;BME280;10774;42.178;26.578;2023-07-09T12:47:14;100093.59;;;30.58;35.82
21234;BME280;10774;42.178;26.578;2023-07-09T12:49:43;100102.06;;;30.70;35.72
21234;BME280;10774;42.178;26.578;2023-07-09T12:52:15;100101.16;;;30.13;36.31
21234;BME280;10774;42.178;26.578;2023-07-09T12:54:52;100088.13;;;29.75;36.77
21234;BME280;10774;42.178;26.578;2023-07-09T12:57:17;100078.47;;;30.29;35.24
21234;BME280;10774;42.178;26.578;2023-07-09T12:59:45;100083.97;;;29.98;35.82
21234;BME280;10774;42.178;26.578;2023-07-09T13:02:17;100089.41;;;29.73;35.70
21234;BME280;10774;42.178;26.578;2023-07-09T13:04:43;100090.56;;;29.58;36.52
21234;BME280;10774;42.178;26.578;2023-07-09T13:07:38;100103.41;;;29.84;36.26
21234;BME280;10774;42.178;26.578;2023-07-09T13:10:18;100095.97;;;29.78;35.91
21234;BME280;10774;42.178;26.578;2023-07-09T13:12:47;100093.06;;;30.05;36.15
21234;BME280;10774;42.178;26.578;2023-07-09T13:15:43;100089.38;;;29.79;36.80